createdAt,value
2019-03-08T00:01:07.092Z,956.08
2019-03-08T00:03:33.404Z,956.01
2019-03-08T00:05:59.712Z,955.97
2019-03-08T00:08:26.019Z,955.98
2019-03-08T00:10:52.337Z,955.92
2019-03-08T00:13:18.650Z,955.97
2019-03-08T00:15:44.960Z,955.96
2019-03-08T00:18:11.336Z,955.92
2019-03-08T00:20:37.635Z,955.88
2019-03-08T00:23:03.950Z,955.97
2019-03-08T00:25:30.264Z,955.90
2019-03-08T00:27:56.574Z,955.93
2019-03-08T00:30:22.886Z,955.92
2019-03-08T00:32:49.204Z,955.98
2019-03-08T00:35:15.514Z,956.02
2019-03-08T00:37:41.820Z,956.07
2019-03-08T00:40:08.127Z,956.11
2019-03-08T00:42:34.434Z,956.09
2019-03-08T00:45:00.743Z,956.14
2019-03-08T00:47:27.076Z,956.08
2019-03-08T00:49:53.386Z,956.06
2019-03-08T00:52:19.698Z,956.05
2019-03-08T00:54:46.010Z,955.99
2019-03-08T00:57:12.318Z,955.95
2019-03-08T00:59:38.632Z,955.97
2019-03-08T01:02:04.946Z,955.94
2019-03-08T01:04:31.271Z,955.98
2019-03-08T01:06:57.577Z,955.94
2019-03-08T01:09:23.891Z,955.96
2019-03-08T01:11:50.203Z,955.92
2019-03-08T01:14:16.516Z,955.91
2019-03-08T01:16:42.827Z,955.95
2019-03-08T01:19:09.139Z,955.96
2019-03-08T01:21:35.465Z,955.95
2019-03-08T01:24:01.771Z,955.93
2019-03-08T01:26:28.075Z,955.92
2019-03-08T01:28:54.432Z,955.98
2019-03-08T01:31:20.738Z,955.89
2019-03-08T01:33:47.049Z,955.95
2019-03-08T01:36:13.353Z,955.85
2019-03-08T01:38:39.664Z,955.81
2019-03-08T01:41:06.017Z,955.80
2019-03-08T01:43:32.398Z,955.85
2019-03-08T01:45:58.659Z,955.86
2019-03-08T01:48:24.964Z,955.79
2019-03-08T01:50:51.276Z,955.83
2019-03-08T01:53:17.591Z,955.84
2019-03-08T01:55:43.903Z,955.88
2019-03-08T01:58:10.250Z,955.94
2019-03-08T02:00:36.515Z,955.88
2019-03-08T02:03:02.829Z,955.91
2019-03-08T02:05:29.136Z,955.93
2019-03-08T02:07:55.448Z,955.95
2019-03-08T02:10:21.755Z,955.88
2019-03-08T02:12:48.066Z,955.98
2019-03-08T02:15:14.371Z,955.94
2019-03-08T02:17:40.718Z,955.96
2019-03-08T02:20:07.030Z,955.96
2019-03-08T02:22:33.341Z,955.96
2019-03-08T02:24:59.640Z,956.05
2019-03-08T02:27:25.943Z,956.01
2019-03-08T02:29:52.259Z,956.03
2019-03-08T02:32:18.572Z,955.99
2019-03-08T02:34:44.880Z,956.03
2019-03-08T02:37:11.187Z,955.98
2019-03-08T02:39:37.493Z,956.07
2019-03-08T02:42:03.805Z,956.07
2019-03-08T02:44:30.117Z,956.11
2019-03-08T02:46:56.422Z,956.04
2019-03-08T02:49:22.734Z,956.09
2019-03-08T02:51:49.042Z,956.12
2019-03-08T02:54:15.354Z,956.19
2019-03-08T02:56:41.663Z,956.15
2019-03-08T02:59:07.973Z,956.09
2019-03-08T03:01:34.284Z,956.09
2019-03-08T03:04:00.628Z,956.14
2019-03-08T03:06:26.947Z,956.20
2019-03-08T03:08:53.238Z,956.23
2019-03-08T03:11:19.553Z,956.19
2019-03-08T03:13:45.860Z,956.15
2019-03-08T03:16:12.169Z,956.21
2019-03-08T03:18:38.476Z,956.24
2019-03-08T03:21:04.784Z,956.20
2019-03-08T03:23:31.091Z,956.26
2019-03-08T03:25:57.429Z,956.29
2019-03-08T03:28:23.732Z,956.25
2019-03-08T03:30:50.042Z,956.29
2019-03-08T03:33:16.357Z,956.26
2019-03-08T03:35:42.658Z,956.34
2019-03-08T03:38:08.969Z,956.33
2019-03-08T03:40:35.276Z,956.33
2019-03-08T03:43:01.585Z,956.38
2019-03-08T03:45:27.895Z,956.42
2019-03-08T03:47:54.199Z,956.28
2019-03-08T03:50:20.518Z,956.39
2019-03-08T03:52:46.820Z,956.35
2019-03-08T03:55:13.136Z,956.39
2019-03-08T03:57:39.451Z,956.41
2019-03-08T04:00:05.761Z,956.46
2019-03-08T04:02:32.065Z,956.52
2019-03-08T04:04:58.376Z,956.52
2019-03-08T04:07:24.685Z,956.55
2019-03-08T04:09:51.002Z,956.47
2019-03-08T04:12:17.311Z,956.50
2019-03-08T04:14:43.641Z,956.48
2019-03-08T04:17:09.953Z,956.48
2019-03-08T04:19:36.256Z,956.49
2019-03-08T04:22:02.568Z,956.50
2019-03-08T04:24:28.874Z,956.56
2019-03-08T04:26:55.189Z,956.46
2019-03-08T04:29:21.492Z,956.41
2019-03-08T04:31:47.805Z,956.43
2019-03-08T04:34:14.124Z,956.29
2019-03-08T04:36:40.430Z,956.38
2019-03-08T04:39:06.733Z,956.34
2019-03-08T04:41:33.039Z,956.30
2019-03-08T04:43:59.348Z,956.27
2019-03-08T04:46:25.662Z,956.27
2019-03-08T04:48:51.994Z,956.27
2019-03-08T04:51:18.305Z,956.28
2019-03-08T04:53:44.613Z,956.37
2019-03-08T04:56:10.971Z,956.27
2019-03-08T04:58:37.280Z,956.31
2019-03-08T05:01:03.585Z,956.23
2019-03-08T05:03:29.894Z,956.21
2019-03-08T05:05:56.201Z,956.24
2019-03-08T05:08:22.528Z,956.36
2019-03-08T05:10:48.811Z,956.31
2019-03-08T05:13:15.289Z,956.34
2019-03-08T05:15:41.604Z,956.23
2019-03-08T05:18:07.926Z,956.21
2019-03-08T05:20:34.234Z,956.32
2019-03-08T05:23:00.545Z,956.31
2019-03-08T05:25:26.852Z,956.32
2019-03-08T05:27:53.159Z,956.29
2019-03-08T05:30:19.468Z,956.33
2019-03-08T05:32:45.779Z,956.38
2019-03-08T05:35:12.108Z,956.41
2019-03-08T05:37:38.464Z,956.50
2019-03-08T05:40:04.774Z,956.54
2019-03-08T05:42:31.075Z,956.48
2019-03-08T05:44:57.386Z,956.57
2019-03-08T05:47:23.698Z,956.56
2019-03-08T05:49:50.005Z,956.54
2019-03-08T05:52:16.317Z,956.71
2019-03-08T05:54:42.627Z,956.65
2019-03-08T05:57:08.932Z,956.61
2019-03-08T05:59:35.248Z,956.59
2019-03-08T06:02:01.552Z,956.60
2019-03-08T06:04:27.869Z,956.57
2019-03-08T06:06:54.174Z,956.49
2019-03-08T06:09:20.522Z,956.64
2019-03-08T06:11:46.962Z,956.63
2019-03-08T06:14:13.294Z,956.62
2019-03-08T06:16:39.678Z,956.66
2019-03-08T06:19:05.989Z,956.63
2019-03-08T06:21:32.321Z,956.63
2019-03-08T06:23:58.615Z,956.56
2019-03-08T06:26:24.931Z,956.59
2019-03-08T06:28:51.252Z,956.63
2019-03-08T06:31:17.577Z,956.64
2019-03-08T06:33:43.884Z,956.67
2019-03-08T06:36:10.197Z,956.59
2019-03-08T06:38:36.517Z,956.61
2019-03-08T06:41:02.826Z,956.66
2019-03-08T06:43:29.136Z,956.58
2019-03-08T06:45:55.720Z,956.65
2019-03-08T06:48:22.078Z,956.62
2019-03-08T06:50:48.385Z,956.63
2019-03-08T06:53:14.700Z,956.60
2019-03-08T06:55:41.008Z,956.62
2019-03-08T06:58:07.324Z,956.65
2019-03-08T07:00:33.644Z,956.69
2019-03-08T07:02:59.986Z,956.66
2019-03-08T07:05:26.275Z,956.68
2019-03-08T07:07:52.581Z,956.65
2019-03-08T07:10:18.920Z,956.67
2019-03-08T07:12:45.222Z,956.62
2019-03-08T07:15:11.536Z,956.63
2019-03-08T07:17:37.846Z,956.65
2019-03-08T07:20:04.183Z,956.66
2019-03-08T07:22:30.501Z,956.61
2019-03-08T07:24:56.806Z,956.60
2019-03-08T07:27:23.157Z,956.61
2019-03-08T07:29:49.432Z,956.66
2019-03-08T07:32:18.828Z,956.66
2019-03-08T07:34:45.140Z,956.63
2019-03-08T07:37:11.460Z,956.58
2019-03-08T07:39:37.775Z,956.52
2019-03-08T07:42:04.086Z,956.52
2019-03-08T07:44:30.404Z,956.52
2019-03-08T07:46:56.712Z,956.53
2019-03-08T07:49:23.074Z,956.54
2019-03-08T07:51:49.537Z,956.52
2019-03-08T07:54:15.913Z,956.49
2019-03-08T07:56:42.223Z,956.42
2019-03-08T07:59:08.537Z,956.44
2019-03-08T08:01:34.906Z,956.47
2019-03-08T08:04:01.220Z,956.43
2019-03-08T08:06:27.527Z,956.41
2019-03-08T08:08:53.833Z,956.39
2019-03-08T08:11:20.147Z,956.36
2019-03-08T08:13:46.459Z,956.36
2019-03-08T08:16:12.775Z,956.28
2019-03-08T08:18:39.093Z,956.27
2019-03-08T08:21:05.399Z,956.27
2019-03-08T08:23:35.386Z,956.27
2019-03-08T08:25:58.018Z,956.28
2019-03-08T08:28:24.328Z,956.35
2019-03-08T08:30:50.713Z,956.33
2019-03-08T08:33:17.072Z,956.32
2019-03-08T08:35:43.378Z,956.36
2019-03-08T08:38:09.691Z,956.32
2019-03-08T08:40:35.998Z,956.36
2019-03-08T08:43:02.309Z,956.36
2019-03-08T08:45:28.677Z,956.27
2019-03-08T08:47:54.961Z,956.23
2019-03-08T08:50:23.159Z,956.28
2019-03-08T08:52:49.465Z,956.22
2019-03-08T08:55:15.802Z,956.23
2019-03-08T08:57:42.250Z,956.19
2019-03-08T09:00:08.557Z,956.20
2019-03-08T09:02:34.871Z,956.17
2019-03-08T09:05:01.685Z,956.19
2019-03-08T09:07:27.510Z,956.05
2019-03-08T09:09:53.821Z,956.08
2019-03-08T09:12:20.127Z,956.07
2019-03-08T09:14:47.146Z,956.11
2019-03-08T09:17:12.759Z,956.10
2019-03-08T09:19:39.085Z,956.10
2019-03-08T09:22:05.388Z,956.16
2019-03-08T09:24:31.699Z,956.15
2019-03-08T09:26:58.003Z,956.07
2019-03-08T09:29:24.315Z,956.08
2019-03-08T09:31:50.628Z,956.15
2019-03-08T09:34:16.941Z,956.11
2019-03-08T09:36:43.321Z,956.11
2019-03-08T09:39:09.636Z,956.06
2019-03-08T09:41:35.984Z,956.08
2019-03-08T09:44:02.265Z,956.09
2019-03-08T09:46:28.585Z,956.01
2019-03-08T09:48:54.958Z,956.03
2019-03-08T09:51:21.278Z,956.03
2019-03-08T09:53:47.581Z,955.93
2019-03-08T09:56:13.906Z,955.98
2019-03-08T09:58:40.215Z,955.88
2019-03-08T10:01:06.543Z,955.85
2019-03-08T10:03:32.857Z,955.86
2019-03-08T10:05:59.176Z,955.87
2019-03-08T10:08:25.485Z,955.79
2019-03-08T10:10:51.812Z,955.77
2019-03-08T10:13:18.176Z,955.71
2019-03-08T10:15:45.109Z,955.76
2019-03-08T10:18:12.408Z,955.71
2019-03-08T10:20:40.298Z,955.66
2019-03-08T10:23:09.034Z,955.68
2019-03-08T10:25:35.340Z,955.65
2019-03-08T10:28:01.660Z,955.58
2019-03-08T10:30:27.990Z,955.65
2019-03-08T10:32:54.290Z,955.60
2019-03-08T10:35:23.745Z,955.60
2019-03-08T10:37:46.906Z,955.56
2019-03-08T10:40:13.218Z,955.55
2019-03-08T10:42:39.533Z,955.52
2019-03-08T10:45:05.846Z,955.48
2019-03-08T10:47:32.181Z,955.52
2019-03-08T10:49:58.493Z,955.46
2019-03-08T10:52:24.873Z,955.44
2019-03-08T10:54:51.168Z,955.45
2019-03-08T10:57:17.478Z,955.40
2019-03-08T10:59:43.793Z,955.30
2019-03-08T11:02:10.121Z,955.31
2019-03-08T11:04:36.625Z,955.22
2019-03-08T11:07:04.041Z,955.13
2019-03-08T11:09:29.605Z,955.10
2019-03-08T11:11:55.905Z,955.06
2019-03-08T11:14:22.216Z,954.94
2019-03-08T11:16:48.534Z,954.95
2019-03-08T11:19:14.920Z,954.94
2019-03-08T11:21:41.269Z,954.90
2019-03-08T11:24:07.560Z,954.83
2019-03-08T11:26:33.947Z,954.78
2019-03-08T11:29:00.269Z,954.79
2019-03-08T11:31:26.589Z,954.76
2019-03-08T11:33:52.935Z,954.69
2019-03-08T11:36:19.259Z,954.68
2019-03-08T11:38:45.564Z,954.65
2019-03-08T11:41:14.455Z,954.63
2019-03-08T11:43:38.178Z,954.63
2019-03-08T11:46:04.529Z,954.57
2019-03-08T11:48:30.809Z,954.57
2019-03-08T11:50:57.116Z,954.48
2019-03-08T11:53:23.435Z,954.48
2019-03-08T11:55:49.771Z,954.41
2019-03-08T11:58:16.092Z,954.35
2019-03-08T12:00:42.420Z,954.32
2019-03-08T12:03:08.721Z,954.30
2019-03-08T12:05:35.030Z,954.25
2019-03-08T12:08:01.370Z,954.22
2019-03-08T12:10:27.665Z,954.10
2019-03-08T12:12:54.005Z,954.09
2019-03-08T12:15:20.319Z,954.06
2019-03-08T12:17:46.626Z,954.04
2019-03-08T12:20:12.944Z,954.00
2019-03-08T12:22:39.257Z,953.98
2019-03-08T12:25:05.566Z,953.94
2019-03-08T12:27:31.877Z,953.96
2019-03-08T12:29:58.188Z,953.95
2019-03-08T12:32:24.497Z,953.87
2019-03-08T12:34:50.808Z,953.86
2019-03-08T12:37:17.117Z,953.79
2019-03-08T12:39:43.430Z,953.74
2019-03-08T12:42:09.748Z,953.69
2019-03-08T12:44:36.060Z,953.71
2019-03-08T12:47:02.602Z,953.69
2019-03-08T12:49:28.922Z,953.70
2019-03-08T12:51:55.225Z,953.65
2019-03-08T12:54:21.535Z,953.73
2019-03-08T12:56:47.845Z,953.72
2019-03-08T12:59:14.168Z,953.63
2019-03-08T13:01:40.486Z,953.63
2019-03-08T13:04:06.793Z,953.65
2019-03-08T13:06:33.101Z,953.68
2019-03-08T13:08:59.435Z,953.62
2019-03-08T13:11:32.919Z,953.53
2019-03-08T13:13:52.067Z,953.55
2019-03-08T13:16:18.425Z,953.53
2019-03-08T13:18:44.734Z,953.45
2019-03-08T13:21:11.066Z,953.54
2019-03-08T13:23:37.376Z,953.47
2019-03-08T13:26:03.718Z,953.48
2019-03-08T13:28:30.029Z,953.46
2019-03-08T13:30:56.332Z,953.46
2019-03-08T13:33:22.682Z,953.44
2019-03-08T13:35:48.963Z,953.45
2019-03-08T13:38:15.293Z,953.44
2019-03-08T13:40:41.614Z,953.39
2019-03-08T13:43:07.935Z,953.32
2019-03-08T13:45:34.252Z,953.30
2019-03-08T13:48:00.571Z,953.31
2019-03-08T13:50:26.882Z,953.27
2019-03-08T13:52:53.194Z,953.24
2019-03-08T13:55:19.506Z,953.15
2019-03-08T13:57:45.812Z,953.19
2019-03-08T14:00:12.130Z,953.12
2019-03-08T14:02:38.463Z,953.16
2019-03-08T14:05:04.775Z,953.12
2019-03-08T14:07:31.087Z,953.14
2019-03-08T14:09:57.398Z,953.19
2019-03-08T14:12:23.754Z,953.23
2019-03-08T14:14:50.067Z,953.20
2019-03-08T14:17:16.374Z,953.17
2019-03-08T14:19:42.689Z,953.19
2019-03-08T14:22:09.005Z,953.15
2019-03-08T14:24:35.339Z,953.19
2019-03-08T14:27:01.643Z,953.14
2019-03-08T14:29:27.953Z,953.13
2019-03-08T14:31:54.288Z,953.07
2019-03-08T14:34:20.600Z,953.06
2019-03-08T14:36:46.920Z,953.08
2019-03-08T14:39:13.266Z,953.03
2019-03-08T14:41:39.572Z,953.07
2019-03-08T14:44:05.881Z,953.05
2019-03-08T14:46:32.200Z,953.04
2019-03-08T14:48:58.515Z,953.09
2019-03-08T14:51:24.824Z,953.11
2019-03-08T14:53:51.136Z,953.22
2019-03-08T14:56:17.458Z,953.17
2019-03-08T14:58:43.769Z,953.19
2019-03-08T15:01:10.077Z,953.09
2019-03-08T15:03:43.318Z,953.14
2019-03-08T15:06:02.701Z,953.17
2019-03-08T15:08:29.022Z,953.14
2019-03-08T15:10:55.330Z,953.17
2019-03-08T15:13:24.007Z,953.14
2019-03-08T15:15:47.963Z,953.16
2019-03-08T15:18:14.747Z,953.19
2019-03-08T15:20:40.599Z,953.16
2019-03-08T15:23:06.922Z,953.22
2019-03-08T15:25:33.217Z,953.22
2019-03-08T15:27:59.533Z,953.31
2019-03-08T15:30:25.844Z,953.34
2019-03-08T15:32:52.151Z,953.43
2019-03-08T15:35:18.464Z,953.48
2019-03-08T15:37:44.858Z,953.51
2019-03-08T15:40:11.119Z,953.48
2019-03-08T15:42:38.077Z,953.56
2019-03-08T15:45:05.809Z,953.53
2019-03-08T15:47:32.482Z,953.65
2019-03-08T15:49:56.367Z,953.62
2019-03-08T15:52:22.682Z,953.58
2019-03-08T15:54:48.988Z,953.71
2019-03-08T15:57:15.298Z,953.71
2019-03-08T15:59:41.609Z,953.71
2019-03-08T16:02:07.917Z,953.73
2019-03-08T16:04:34.228Z,953.72
2019-03-08T16:07:00.531Z,953.68
2019-03-08T16:09:26.871Z,953.77
2019-03-08T16:11:53.188Z,953.77
2019-03-08T16:14:19.520Z,953.84
2019-03-08T16:16:45.828Z,953.87
2019-03-08T16:19:12.140Z,953.83
2019-03-08T16:21:38.455Z,953.93
2019-03-08T16:24:04.770Z,953.89
2019-03-08T16:26:31.101Z,953.85
2019-03-08T16:28:57.412Z,953.84
2019-03-08T16:31:25.615Z,953.89
2019-03-08T16:33:50.021Z,953.89
2019-03-08T16:36:16.328Z,953.88
2019-03-08T16:38:42.635Z,953.90
2019-03-08T16:41:08.946Z,954.02
2019-03-08T16:43:35.253Z,954.00
2019-03-08T16:46:01.584Z,954.06
2019-03-08T16:48:27.916Z,954.03
2019-03-08T16:50:56.122Z,954.08
2019-03-08T16:53:20.506Z,954.09
2019-03-08T16:55:46.837Z,954.10
2019-03-08T16:58:13.238Z,954.09
2019-03-08T17:00:40.463Z,954.17
2019-03-08T17:03:05.855Z,954.15
2019-03-08T17:05:33.402Z,954.20
2019-03-08T17:07:59.773Z,954.27
2019-03-08T17:10:26.082Z,954.27
2019-03-08T17:12:52.555Z,954.28
2019-03-08T17:15:18.789Z,954.25
2019-03-08T17:17:45.104Z,954.26
2019-03-08T17:20:11.415Z,954.34
2019-03-08T17:22:37.722Z,954.34
2019-03-08T17:25:04.037Z,954.37
2019-03-08T17:27:30.348Z,954.49
2019-03-08T17:29:56.654Z,954.46
2019-03-08T17:32:22.967Z,954.49
2019-03-08T17:34:49.277Z,954.46
2019-03-08T17:37:15.583Z,954.32
2019-03-08T17:39:41.897Z,954.43
2019-03-08T17:42:08.212Z,954.44
2019-03-08T17:44:34.544Z,954.43
2019-03-08T17:47:00.851Z,954.44
2019-03-08T17:49:27.161Z,954.57
2019-03-08T17:51:53.553Z,954.57
2019-03-08T17:54:19.849Z,954.54
2019-03-08T17:56:46.120Z,954.58
2019-03-08T17:59:12.433Z,954.53
2019-03-08T18:01:38.746Z,954.55
2019-03-08T18:04:05.072Z,954.66
2019-03-08T18:06:31.377Z,954.68
2019-03-08T18:08:57.732Z,954.74
2019-03-08T18:11:24.060Z,954.73
2019-03-08T18:13:50.610Z,954.72
2019-03-08T18:16:17.024Z,954.75
2019-03-08T18:18:43.332Z,954.80
2019-03-08T18:21:09.682Z,954.79
2019-03-08T18:23:35.983Z,954.85
2019-03-08T18:26:02.334Z,954.81
2019-03-08T18:28:28.636Z,954.85
2019-03-08T18:30:54.952Z,954.88
2019-03-08T18:33:21.265Z,954.95
2019-03-08T18:35:47.602Z,954.97
2019-03-08T18:38:13.930Z,955.05
2019-03-08T18:40:40.239Z,955.04
2019-03-08T18:43:06.564Z,955.06
2019-03-08T18:45:32.879Z,955.05
2019-03-08T18:47:59.183Z,955.07
2019-03-08T18:50:25.496Z,955.07
2019-03-08T18:52:51.828Z,955.14
2019-03-08T18:55:18.119Z,955.22
2019-03-08T18:57:44.441Z,955.21
2019-03-08T19:00:10.752Z,955.29
2019-03-08T19:02:37.085Z,955.28
2019-03-08T19:05:03.400Z,955.39
2019-03-08T19:07:29.712Z,955.42
2019-03-08T19:09:56.038Z,955.39
2019-03-08T19:12:22.357Z,955.39
2019-03-08T19:14:48.666Z,955.40
2019-03-08T19:17:14.978Z,955.48
2019-03-08T19:19:41.296Z,955.53
2019-03-08T19:22:07.605Z,955.48
2019-03-08T19:24:33.911Z,955.54
2019-03-08T19:27:00.223Z,955.53
2019-03-08T19:29:26.533Z,955.56
2019-03-08T19:31:52.841Z,955.64
2019-03-08T19:34:19.156Z,955.60
2019-03-08T19:36:45.464Z,955.64
2019-03-08T19:39:11.781Z,955.66
2019-03-08T19:41:38.085Z,955.74
2019-03-08T19:44:04.398Z,955.63
2019-03-08T19:46:30.703Z,955.67
2019-03-08T19:48:57.009Z,955.71
2019-03-08T19:51:23.326Z,955.75
2019-03-08T19:53:49.653Z,955.74
2019-03-08T19:56:15.962Z,955.75
2019-03-08T19:58:42.277Z,955.73
2019-03-08T20:01:08.584Z,955.71
2019-03-08T20:03:34.922Z,955.73
2019-03-08T20:06:01.192Z,955.69
2019-03-08T20:08:27.500Z,955.80
2019-03-08T20:10:53.834Z,955.78
2019-03-08T20:13:20.134Z,955.77
2019-03-08T20:15:46.447Z,955.83
2019-03-08T20:18:12.760Z,955.82
2019-03-08T20:20:39.099Z,955.92
2019-03-08T20:23:05.462Z,955.91
2019-03-08T20:25:31.769Z,955.96
2019-03-08T20:27:58.077Z,955.98
2019-03-08T20:30:24.389Z,955.96
2019-03-08T20:32:50.701Z,955.95
2019-03-08T20:35:17.026Z,956.03
2019-03-08T20:37:43.363Z,955.93
2019-03-08T20:40:09.663Z,955.99
2019-03-08T20:42:35.981Z,956.01
2019-03-08T20:45:02.309Z,956.09
2019-03-08T20:47:28.641Z,956.03
2019-03-08T20:49:54.949Z,956.03
2019-03-08T20:52:21.252Z,956.06
2019-03-08T20:54:47.577Z,956.04
2019-03-08T20:57:13.887Z,955.98
2019-03-08T20:59:40.200Z,956.02
2019-03-08T21:02:06.505Z,955.98
2019-03-08T21:04:32.816Z,956.02
2019-03-08T21:06:59.134Z,955.98
2019-03-08T21:09:25.441Z,955.94
2019-03-08T21:11:51.757Z,955.91
2019-03-08T21:14:18.107Z,955.93
2019-03-08T21:16:44.398Z,955.94
2019-03-08T21:19:10.784Z,955.99
2019-03-08T21:21:37.066Z,956.00
2019-03-08T21:24:03.379Z,955.98
2019-03-08T21:26:29.733Z,956.03
2019-03-08T21:28:56.018Z,956.04
2019-03-08T21:31:22.371Z,956.09
2019-03-08T21:33:48.631Z,956.00
2019-03-08T21:36:14.945Z,956.04
2019-03-08T21:38:41.253Z,956.06
2019-03-08T21:41:07.572Z,955.99
2019-03-08T21:43:33.890Z,956.09
2019-03-08T21:46:00.207Z,956.10
2019-03-08T21:48:26.524Z,956.10
2019-03-08T21:50:52.843Z,956.16
2019-03-08T21:53:19.168Z,956.08
2019-03-08T21:55:45.485Z,956.04
2019-03-08T21:58:11.814Z,956.13
2019-03-08T22:00:38.148Z,956.20
2019-03-08T22:03:04.460Z,956.11
2019-03-08T22:05:30.785Z,956.22
2019-03-08T22:07:57.093Z,956.28
2019-03-08T22:10:23.405Z,956.25
2019-03-08T22:12:49.712Z,956.21
2019-03-08T22:15:16.045Z,956.23
2019-03-08T22:17:42.360Z,956.23
2019-03-08T22:20:08.694Z,956.17
2019-03-08T22:22:35.008Z,956.20
2019-03-08T22:25:01.320Z,956.23
2019-03-08T22:27:27.637Z,956.23
2019-03-08T22:29:53.950Z,956.30
2019-03-08T22:32:20.261Z,956.25
2019-03-08T22:34:46.570Z,956.30
2019-03-08T22:37:12.891Z,956.21
2019-03-08T22:39:39.251Z,956.23
2019-03-08T22:42:05.556Z,956.28
2019-03-08T22:44:31.873Z,956.40
2019-03-08T22:46:58.251Z,956.40
2019-03-08T22:49:24.561Z,956.51
2019-03-08T22:51:50.871Z,956.49
2019-03-08T22:54:17.191Z,956.51
2019-03-08T22:56:43.501Z,956.47
2019-03-08T22:59:09.854Z,956.51
2019-03-08T23:01:36.169Z,956.53
2019-03-08T23:04:02.484Z,956.58
2019-03-08T23:06:28.801Z,956.64
2019-03-08T23:08:55.108Z,956.62
2019-03-08T23:11:21.422Z,956.60
2019-03-08T23:13:47.733Z,956.65
2019-03-08T23:16:14.039Z,956.64
2019-03-08T23:18:40.347Z,956.67
2019-03-08T23:21:06.715Z,956.67
2019-03-08T23:23:33.040Z,956.78
2019-03-08T23:25:59.333Z,956.80
2019-03-08T23:28:27.568Z,956.82
2019-03-08T23:30:53.881Z,956.78
2019-03-08T23:33:20.206Z,956.74
2019-03-08T23:35:46.512Z,956.75
2019-03-08T23:38:12.849Z,956.75
2019-03-08T23:40:39.160Z,956.74
2019-03-08T23:43:05.465Z,956.79
2019-03-08T23:45:31.794Z,956.73
2019-03-08T23:47:58.109Z,956.75
2019-03-08T23:50:24.416Z,956.77
2019-03-08T23:52:50.759Z,956.82
2019-03-08T23:55:17.052Z,956.82
2019-03-08T23:57:43.357Z,956.81
